createdAt,value
2022-11-28T00:00:16.285Z,13.42
2022-11-28T00:00:38.489Z,13.32
2022-11-28T00:01:01.232Z,13.40
2022-11-28T00:01:25.500Z,13.47
2022-11-28T00:01:49.854Z,13.50
2022-11-28T00:02:13.025Z,13.48
2022-11-28T00:02:34.852Z,13.32
2022-11-28T00:02:56.585Z,13.31
2022-11-28T00:03:18.349Z,13.28
2022-11-28T00:03:41.300Z,13.29
2022-11-28T00:04:04.428Z,13.29
2022-11-28T00:04:26.516Z,13.35
2022-11-28T00:04:50.805Z,13.35
2022-11-28T00:05:13.753Z,13.28
2022-11-28T00:05:36.019Z,13.25
2022-11-28T00:06:02.255Z,13.10
2022-11-28T00:06:24.502Z,13.15
2022-11-28T00:06:49.891Z,13.15
2022-11-28T00:07:12.017Z,13.18
2022-11-28T00:07:33.997Z,13.23
2022-11-28T00:07:56.009Z,13.19
2022-11-28T00:08:18.133Z,13.24
2022-11-28T00:08:45.625Z,13.22
2022-11-28T00:10:09.580Z,12.77
2022-11-28T00:10:51.895Z,12.89
2022-11-28T00:11:15.386Z,12.97
2022-11-28T00:11:40.048Z,13.32
2022-11-28T00:12:01.602Z,13.37
2022-11-28T00:12:24.059Z,13.41
2022-11-28T00:12:45.659Z,13.43
2022-11-28T00:13:08.643Z,13.39
2022-11-28T00:13:30.241Z,13.42
2022-11-28T00:13:51.978Z,13.44
2022-11-28T00:14:14.645Z,13.38
2022-11-28T00:14:37.269Z,13.34
2022-11-28T00:14:58.861Z,13.38
2022-11-28T00:15:20.495Z,13.36
2022-11-28T00:15:42.243Z,13.34
2022-11-28T00:16:07.065Z,13.22
2022-11-28T00:16:29.777Z,13.30
2022-11-28T00:16:51.479Z,13.30
2022-11-28T00:17:14.486Z,13.23
2022-11-28T00:17:37.043Z,13.28
2022-11-28T00:17:58.658Z,13.36
2022-11-28T00:18:20.262Z,13.43
2022-11-28T00:18:42.025Z,13.32
2022-11-28T00:19:05.859Z,13.47
2022-11-28T00:19:27.475Z,13.52
2022-11-28T00:19:49.669Z,13.54
2022-11-28T00:20:11.906Z,13.61
2022-11-28T00:20:34.593Z,13.50
2022-11-28T00:20:59.526Z,13.43
2022-11-28T00:21:22.349Z,13.41
2022-11-28T00:21:44.033Z,13.36
2022-11-28T00:22:06.558Z,13.31
2022-11-28T00:22:29.377Z,13.23
2022-11-28T00:22:52.116Z,13.23
2022-11-28T00:23:13.714Z,13.18
2022-11-28T00:23:36.894Z,13.23
2022-11-28T00:23:59.323Z,13.26
2022-11-28T00:24:20.872Z,13.16
2022-11-28T00:24:43.659Z,13.23
2022-11-28T00:25:06.221Z,13.32
2022-11-28T00:25:27.794Z,13.36
2022-11-28T00:25:57.127Z,13.41
2022-11-28T00:26:22.677Z,13.40
2022-11-28T00:26:44.481Z,13.27
2022-11-28T00:27:06.122Z,13.34
2022-11-28T00:27:27.739Z,13.37
2022-11-28T00:27:49.441Z,13.42
2022-11-28T00:28:11.975Z,13.28
2022-11-28T00:28:33.988Z,13.31
2022-11-28T00:28:56.450Z,13.37
2022-11-28T00:29:19.015Z,13.38
2022-11-28T00:29:40.673Z,13.40
2022-11-28T00:30:02.404Z,13.47
2022-11-28T00:30:24.089Z,13.42
2022-11-28T00:30:45.650Z,13.15
2022-11-28T00:31:12.483Z,13.30
2022-11-28T00:31:36.932Z,13.31
2022-11-28T00:31:59.131Z,13.33
2022-11-28T00:32:23.243Z,13.30
2022-11-28T00:32:44.830Z,13.28
2022-11-28T00:33:06.644Z,13.25
2022-11-28T00:33:28.322Z,13.18
2022-11-28T00:33:50.987Z,13.25
2022-11-28T00:34:14.609Z,13.16
2022-11-28T00:34:36.218Z,13.18
2022-11-28T00:34:57.794Z,13.26
2022-11-28T00:35:20.377Z,13.31
2022-11-28T00:35:41.990Z,13.39
2022-11-28T00:36:05.020Z,13.46
2022-11-28T00:36:26.672Z,13.48
2022-11-28T00:36:49.630Z,13.43
2022-11-28T00:37:11.301Z,13.43
2022-11-28T00:37:32.981Z,13.41
2022-11-28T00:37:54.579Z,13.44
2022-11-28T00:38:17.601Z,13.44
2022-11-28T00:38:39.642Z,13.46
2022-11-28T00:39:01.198Z,13.43
2022-11-28T00:39:23.125Z,13.48
2022-11-28T00:39:45.642Z,13.47
2022-11-28T00:40:08.231Z,13.56
2022-11-28T00:40:29.828Z,13.53
2022-11-28T00:40:58.608Z,13.44
2022-11-28T00:41:22.363Z,13.42
2022-11-28T00:41:45.640Z,13.38
2022-11-28T00:42:07.283Z,13.43
2022-11-28T00:42:28.892Z,13.29
2022-11-28T00:42:50.482Z,13.29
2022-11-28T00:43:13.246Z,13.30
2022-11-28T00:43:34.926Z,13.32
2022-11-28T00:43:57.186Z,13.32
2022-11-28T00:44:19.817Z,13.35
2022-11-28T00:44:41.622Z,13.46
2022-11-28T00:45:04.036Z,13.49
2022-11-28T00:45:25.768Z,13.29
2022-11-28T00:45:47.370Z,13.28
2022-11-28T00:46:11.025Z,13.23
2022-11-28T00:46:32.742Z,13.20
2022-11-28T00:46:54.290Z,13.29
2022-11-28T00:47:16.374Z,13.28
2022-11-28T00:47:40.297Z,13.33
2022-11-28T00:48:01.993Z,13.37
2022-11-28T00:48:24.060Z,13.46
2022-11-28T00:48:46.028Z,13.51
2022-11-28T00:49:08.941Z,13.52
2022-11-28T00:49:30.556Z,13.53
2022-11-28T00:49:52.178Z,13.52
2022-11-28T00:50:13.851Z,13.54
2022-11-28T00:50:36.521Z,13.54
2022-11-28T00:51:06.481Z,13.61
2022-11-28T00:51:30.429Z,13.59
2022-11-28T00:51:53.001Z,13.57
2022-11-28T00:52:14.608Z,13.49
2022-11-28T00:52:36.193Z,13.51
2022-11-28T00:52:57.779Z,13.54
2022-11-28T00:53:19.442Z,13.51
2022-11-28T00:53:43.701Z,13.56
2022-11-28T00:54:06.740Z,13.46
2022-11-28T00:54:28.310Z,13.48
2022-11-28T00:54:49.929Z,13.53
2022-11-28T00:55:12.482Z,13.61
2022-11-28T00:55:34.088Z,13.59
2022-11-28T00:55:55.698Z,13.63
2022-11-28T00:56:20.339Z,13.62
2022-11-28T00:56:42.983Z,13.64
2022-11-28T00:57:04.580Z,13.67
2022-11-28T00:57:26.154Z,13.52
2022-11-28T00:57:47.695Z,13.44
2022-11-28T00:58:09.550Z,13.49
2022-11-28T00:58:32.774Z,13.50
2022-11-28T00:58:54.460Z,13.49
2022-11-28T00:59:16.062Z,13.55
2022-11-28T00:59:38.869Z,13.40
2022-11-28T01:00:00.441Z,13.34
2022-11-28T01:00:22.303Z,13.36
2022-11-28T01:00:43.911Z,13.39
2022-11-28T01:01:10.628Z,13.38
2022-11-28T01:01:35.236Z,13.48
2022-11-28T01:01:56.932Z,13.49
2022-11-28T01:02:18.683Z,13.50
2022-11-28T01:02:41.769Z,13.50
2022-11-28T01:03:04.665Z,13.48
2022-11-28T01:03:26.365Z,13.39
2022-11-28T01:03:49.530Z,13.48
2022-11-28T01:04:15.150Z,13.39
2022-11-28T01:04:36.763Z,13.45
2022-11-28T01:04:58.398Z,13.42
2022-11-28T01:05:20.022Z,13.43
2022-11-28T01:05:43.186Z,13.50
2022-11-28T01:06:06.646Z,13.50
2022-11-28T01:06:31.552Z,13.51
2022-11-28T01:06:53.314Z,13.50
2022-11-28T01:07:15.931Z,13.52
2022-11-28T01:07:42.160Z,13.55
2022-11-28T01:08:03.869Z,13.57
2022-11-28T01:08:25.545Z,13.58
2022-11-28T01:08:48.115Z,13.63
2022-11-28T01:09:13.155Z,13.61
2022-11-28T01:09:34.745Z,13.59
2022-11-28T01:09:57.311Z,13.63
2022-11-28T01:10:19.144Z,13.63
2022-11-28T01:10:42.220Z,13.47
2022-11-28T01:11:04.910Z,13.48
2022-11-28T01:11:28.646Z,13.51
2022-11-28T01:11:52.841Z,13.22
2022-11-28T01:12:14.525Z,13.26
2022-11-28T01:12:36.157Z,13.30
2022-11-28T01:12:58.791Z,13.37
2022-11-28T01:13:20.359Z,13.29
2022-11-28T01:13:41.976Z,13.27
2022-11-28T01:14:03.859Z,13.31
2022-11-28T01:14:27.281Z,13.33
2022-11-28T01:14:49.156Z,13.27
2022-11-28T01:15:12.891Z,13.25
2022-11-28T01:15:34.607Z,13.11
2022-11-28T01:15:56.242Z,13.15
2022-11-28T01:16:18.889Z,13.18
2022-11-28T01:16:40.548Z,13.19
2022-11-28T01:17:02.179Z,13.11
2022-11-28T01:17:23.769Z,13.26
2022-11-28T01:17:47.631Z,13.25
2022-11-28T01:18:09.297Z,13.23
2022-11-28T01:18:30.923Z,13.19
2022-11-28T01:18:52.725Z,13.21
2022-11-28T01:19:14.714Z,13.19
2022-11-28T01:19:37.310Z,13.11
2022-11-28T01:19:58.946Z,13.03
2022-11-28T01:20:20.513Z,13.05
2022-11-28T01:20:42.139Z,13.09
2022-11-28T01:21:05.063Z,12.99
2022-11-28T01:21:27.028Z,12.82
2022-11-28T01:21:48.830Z,12.88
2022-11-28T01:22:44.670Z,12.93
2022-11-28T01:23:06.604Z,12.99
2022-11-28T01:23:28.238Z,13.02
2022-11-28T01:23:50.398Z,13.04
2022-11-28T01:24:13.433Z,13.08
2022-11-28T01:24:35.005Z,13.08
2022-11-28T01:24:56.640Z,13.12
2022-11-28T01:25:18.354Z,13.16
2022-11-28T01:25:40.926Z,12.87
2022-11-28T01:26:03.919Z,12.96
2022-11-28T01:26:28.069Z,12.83
2022-11-28T01:26:50.614Z,12.86
2022-11-28T01:27:12.242Z,12.94
2022-11-28T01:27:33.896Z,13.01
2022-11-28T01:27:55.524Z,13.08
2022-11-28T01:28:17.109Z,12.98
2022-11-28T01:28:39.636Z,13.06
2022-11-28T01:29:01.285Z,13.02
2022-11-28T01:29:22.993Z,12.96
2022-11-28T01:29:44.580Z,13.02
2022-11-28T01:30:09.397Z,13.09
2022-11-28T01:30:31.480Z,13.16
2022-11-28T01:30:53.132Z,13.20
2022-11-28T01:31:17.386Z,13.24
2022-11-28T01:31:41.804Z,13.21
2022-11-28T01:32:03.794Z,13.18
2022-11-28T01:32:25.367Z,13.17
2022-11-28T01:32:48.316Z,13.21
2022-11-28T01:33:09.946Z,13.24
2022-11-28T01:33:32.612Z,13.23
2022-11-28T01:33:55.562Z,13.26
2022-11-28T01:34:18.007Z,13.28
2022-11-28T01:34:39.737Z,13.32
2022-11-28T01:35:02.546Z,13.35
2022-11-28T01:35:24.222Z,13.29
2022-11-28T01:35:54.855Z,13.39
2022-11-28T01:36:18.567Z,13.36
2022-11-28T01:36:40.154Z,13.16
2022-11-28T01:37:01.760Z,13.13
2022-11-28T01:37:23.591Z,13.16
2022-11-28T01:37:46.396Z,13.16
2022-11-28T01:38:08.069Z,13.27
2022-11-28T01:38:29.741Z,13.30
2022-11-28T01:38:52.326Z,13.29
2022-11-28T01:39:15.654Z,13.26
2022-11-28T01:39:37.857Z,13.26
2022-11-28T01:39:59.538Z,13.27
2022-11-28T01:40:24.202Z,13.22
2022-11-28T01:40:46.325Z,13.16
2022-11-28T01:41:09.737Z,13.17
2022-11-28T01:41:31.378Z,13.23
2022-11-28T01:41:52.992Z,13.19
2022-11-28T01:42:17.356Z,13.22
2022-11-28T01:42:39.988Z,13.29
2022-11-28T01:43:01.629Z,13.33
2022-11-28T01:43:24.260Z,13.30
2022-11-28T01:44:00.735Z,13.37
2022-11-28T01:45:00.700Z,13.41
2022-11-28T01:45:25.601Z,13.41
2022-11-28T01:45:47.353Z,13.40
2022-11-28T01:46:09.782Z,13.39
2022-11-28T01:46:33.679Z,13.37
2022-11-28T01:46:55.458Z,13.27
2022-11-28T01:47:21.488Z,13.17
2022-11-28T01:47:45.638Z,13.20
2022-11-28T01:48:13.758Z,13.22
2022-11-28T01:48:41.998Z,13.28
2022-11-28T01:49:09.746Z,13.30
2022-11-28T01:49:36.869Z,13.35
2022-11-28T01:49:58.693Z,13.39
2022-11-28T01:50:22.430Z,13.31
2022-11-28T01:50:49.978Z,13.35
2022-11-28T01:51:12.652Z,13.32
2022-11-28T01:51:35.246Z,13.33
2022-11-28T01:52:01.195Z,13.32
2022-11-28T01:52:23.565Z,13.33
2022-11-28T01:52:50.078Z,13.34
2022-11-28T01:53:14.471Z,13.34
2022-11-28T01:53:40.474Z,13.21
2022-11-28T01:54:02.749Z,13.36
2022-11-28T01:54:26.186Z,13.25
2022-11-28T01:54:53.962Z,13.40
2022-11-28T01:55:20.699Z,13.39
2022-11-28T01:55:50.731Z,13.32
2022-11-28T01:56:18.814Z,13.31
2022-11-28T01:56:45.119Z,13.27
2022-11-28T01:57:11.131Z,13.33
2022-11-28T01:57:33.144Z,13.39
2022-11-28T01:57:56.699Z,13.39
2022-11-28T01:58:18.891Z,13.44
2022-11-28T01:58:43.612Z,13.49
2022-11-28T01:59:09.046Z,13.45
2022-11-28T01:59:36.534Z,13.33
2022-11-28T02:00:02.567Z,13.36
2022-11-28T02:00:34.705Z,13.34
2022-11-28T02:00:57.758Z,13.40
2022-11-28T02:01:24.483Z,13.23
2022-11-28T02:01:46.542Z,13.30
2022-11-28T02:02:14.683Z,13.24
2022-11-28T02:02:41.884Z,13.25
2022-11-28T02:03:10.213Z,13.33
2022-11-28T02:03:39.422Z,13.37
2022-11-28T02:04:03.227Z,13.43
2022-11-28T02:04:28.936Z,13.49
2022-11-28T02:04:51.117Z,13.53
2022-11-28T02:05:13.918Z,13.57
2022-11-28T02:05:36.389Z,13.60
2022-11-28T02:05:59.313Z,13.61
2022-11-28T02:06:23.637Z,13.56
2022-11-28T02:06:45.190Z,13.68
2022-11-28T02:07:06.992Z,13.50
2022-11-28T02:07:28.628Z,13.49
2022-11-28T02:07:52.016Z,13.47
2022-11-28T02:08:13.697Z,13.49
2022-11-28T02:08:35.892Z,13.48
2022-11-28T02:08:57.597Z,13.47
2022-11-28T02:09:19.210Z,13.51
2022-11-28T02:09:41.846Z,13.55
2022-11-28T02:10:07.246Z,13.58
2022-11-28T02:10:36.790Z,13.47
2022-11-28T02:11:18.863Z,13.66
2022-11-28T02:11:57.328Z,13.45
2022-11-28T02:12:34.683Z,13.42
2022-11-28T02:13:14.411Z,13.26
2022-11-28T02:13:44.417Z,13.35
2022-11-28T02:14:15.415Z,13.35
2022-11-28T02:15:00.534Z,13.37
2022-11-28T02:15:38.934Z,13.37
2022-11-28T02:16:20.779Z,13.42
2022-11-28T02:16:58.214Z,13.35
2022-11-28T02:17:31.952Z,13.43
2022-11-28T02:18:06.713Z,13.47
2022-11-28T02:18:50.137Z,13.27
2022-11-28T02:19:36.481Z,13.39
2022-11-28T02:20:51.703Z,13.28
2022-11-28T02:21:24.917Z,13.29
2022-11-28T02:21:58.299Z,13.32
2022-11-28T02:22:27.495Z,13.43
2022-11-28T02:22:59.720Z,13.42
2022-11-28T02:23:26.643Z,13.23
2022-11-28T02:24:22.379Z,13.51
2022-11-28T02:25:03.262Z,13.38
2022-11-28T02:25:52.006Z,13.49
2022-11-28T02:26:40.438Z,13.46
2022-11-28T02:27:17.198Z,13.45
2022-11-28T02:28:08.419Z,13.49
2022-11-28T02:28:57.920Z,13.46
2022-11-28T02:29:57.130Z,13.47
2022-11-28T02:30:20.903Z,13.20
2022-11-28T02:30:54.494Z,13.24
2022-11-28T02:31:30.252Z,13.15
2022-11-28T02:32:21.285Z,13.03
2022-11-28T02:33:08.415Z,13.13
2022-11-28T02:33:33.436Z,13.23
2022-11-28T02:33:59.729Z,13.12
2022-11-28T02:34:30.756Z,13.03
2022-11-28T02:35:00.246Z,12.83
2022-11-28T02:35:27.202Z,12.83
2022-11-28T02:35:59.119Z,12.86
2022-11-28T02:36:32.563Z,12.90
2022-11-28T02:37:01.490Z,12.97
2022-11-28T02:37:30.178Z,12.90
2022-11-28T02:38:04.202Z,12.96
2022-11-28T02:38:40.514Z,13.09
2022-11-28T02:39:13.539Z,13.05
2022-11-28T02:39:44.911Z,13.12
2022-11-28T02:40:15.637Z,13.12
2022-11-28T02:40:43.904Z,13.05
2022-11-28T02:41:16.446Z,12.99
2022-11-28T02:41:43.456Z,12.97
2022-11-28T02:42:14.250Z,13.02
2022-11-28T02:42:48.757Z,13.06
2022-11-28T02:43:20.658Z,13.05
2022-11-28T02:43:51.601Z,13.16
2022-11-28T02:44:17.748Z,13.13
2022-11-28T02:44:45.666Z,13.22
2022-11-28T02:45:11.990Z,13.23
2022-11-28T02:45:41.610Z,13.24
2022-11-28T02:46:11.151Z,13.14
2022-11-28T02:46:41.066Z,13.20
2022-11-28T02:47:05.799Z,13.20
2022-11-28T02:47:34.270Z,13.29
2022-11-28T02:48:03.211Z,13.18
2022-11-28T02:48:29.178Z,13.32
2022-11-28T02:48:56.267Z,13.37
2022-11-28T02:49:23.882Z,13.42
2022-11-28T02:49:51.653Z,13.43
2022-11-28T02:50:19.337Z,13.43
2022-11-28T02:50:49.625Z,13.39
2022-11-28T02:51:16.244Z,13.46
2022-11-28T02:51:41.569Z,13.53
2022-11-28T02:52:10.665Z,13.55
2022-11-28T02:52:36.412Z,13.53
2022-11-28T02:53:06.303Z,13.48
2022-11-28T02:53:31.986Z,13.53
2022-11-28T02:53:55.212Z,13.55
2022-11-28T02:54:18.304Z,13.56
2022-11-28T02:54:43.104Z,13.57
2022-11-28T02:55:06.630Z,13.61
2022-11-28T02:55:28.326Z,13.51
2022-11-28T02:55:51.969Z,13.58
2022-11-28T02:56:14.015Z,13.58
2022-11-28T02:56:36.899Z,13.63
2022-11-28T02:56:58.876Z,13.53
2022-11-28T02:57:20.475Z,13.51
2022-11-28T02:57:47.053Z,13.55
2022-11-28T02:58:10.460Z,13.56
2022-11-28T02:58:32.166Z,13.57
2022-11-28T02:58:54.132Z,13.58
2022-11-28T02:59:31.055Z,13.49
2022-11-28T02:59:55.422Z,13.60
2022-11-28T03:00:26.245Z,13.64
2022-11-28T03:00:50.524Z,13.62
2022-11-28T03:01:17.991Z,13.63
2022-11-28T03:01:40.673Z,13.64
2022-11-28T03:02:03.675Z,13.56
2022-11-28T03:02:30.300Z,13.59
2022-11-28T03:03:08.012Z,13.58
2022-11-28T03:03:53.493Z,13.61
2022-11-28T03:04:24.310Z,13.60
2022-11-28T03:04:55.755Z,13.58
2022-11-28T03:05:26.521Z,13.57
2022-11-28T03:05:57.202Z,13.61
2022-11-28T03:06:32.785Z,13.65
2022-11-28T03:07:01.449Z,13.69
2022-11-28T03:07:38.423Z,13.71
2022-11-28T03:08:06.068Z,13.66
2022-11-28T03:08:40.593Z,13.61
2022-11-28T03:09:20.405Z,13.62
2022-11-28T03:09:56.830Z,13.65
2022-11-28T03:10:28.184Z,13.74
2022-11-28T03:10:58.059Z,13.73
2022-11-28T03:11:29.798Z,13.70
2022-11-28T03:12:04.999Z,13.76
2022-11-28T03:12:39.266Z,13.81
2022-11-28T03:13:11.417Z,13.64
2022-11-28T03:13:40.324Z,13.56
2022-11-28T03:14:09.098Z,13.59
2022-11-28T03:14:45.441Z,13.66
2022-11-28T03:15:10.370Z,13.70
2022-11-28T03:15:41.175Z,13.76
2022-11-28T03:16:12.914Z,13.72
2022-11-28T03:16:41.299Z,13.77
2022-11-28T03:17:14.401Z,13.77
2022-11-28T03:17:52.086Z,13.79
2022-11-28T03:18:21.967Z,13.70
2022-11-28T03:18:52.988Z,13.70
2022-11-28T03:19:19.469Z,13.62
2022-11-28T03:19:45.346Z,13.69
2022-11-28T03:20:22.888Z,13.68
2022-11-28T03:20:50.282Z,13.73
2022-11-28T03:21:18.819Z,13.78
2022-11-28T03:21:46.678Z,13.71
2022-11-28T03:22:13.274Z,13.73
2022-11-28T03:22:42.886Z,13.69
2022-11-28T03:23:15.785Z,13.45
2022-11-28T03:23:43.687Z,13.54
2022-11-28T03:24:11.161Z,13.60
2022-11-28T03:24:37.945Z,13.60
2022-11-28T03:25:07.936Z,13.42
2022-11-28T03:25:36.939Z,13.47
2022-11-28T03:26:01.881Z,13.43
2022-11-28T03:26:30.423Z,13.49
2022-11-28T03:26:56.511Z,13.54
2022-11-28T03:27:22.171Z,13.54
2022-11-28T03:27:46.903Z,13.48
2022-11-28T03:28:15.220Z,13.49
2022-11-28T03:28:43.673Z,13.44
2022-11-28T03:29:12.375Z,13.46
2022-11-28T03:29:40.607Z,13.53
2022-11-28T03:30:08.640Z,13.57
2022-11-28T03:30:36.571Z,13.60
2022-11-28T03:31:03.909Z,13.65
2022-11-28T03:31:33.709Z,13.52
2022-11-28T03:31:59.658Z,13.57
2022-11-28T03:32:25.678Z,13.48
2022-11-28T03:32:51.827Z,13.59
2022-11-28T03:33:16.250Z,13.59
2022-11-28T03:33:42.259Z,13.64
2022-11-28T03:34:08.562Z,13.68
2022-11-28T03:34:34.373Z,13.72
2022-11-28T03:35:02.824Z,13.73
2022-11-28T03:35:29.828Z,13.77
2022-11-28T03:35:56.105Z,13.77
2022-11-28T03:36:21.224Z,13.85
2022-11-28T03:36:48.289Z,13.88
2022-11-28T03:37:17.301Z,13.84
2022-11-28T03:37:44.120Z,13.66
2022-11-28T03:38:11.295Z,13.74
2022-11-28T03:38:38.065Z,13.78
2022-11-28T03:39:04.900Z,13.76
2022-11-28T03:39:31.494Z,13.75
2022-11-28T03:39:59.243Z,13.84
2022-11-28T03:40:26.277Z,13.86
2022-11-28T03:40:53.241Z,13.88
2022-11-28T03:41:20.007Z,13.92
2022-11-28T03:41:47.103Z,13.96
2022-11-28T03:42:11.135Z,13.99
2022-11-28T03:42:37.241Z,13.99
2022-11-28T03:43:04.583Z,14.03
2022-11-28T03:43:35.555Z,14.04
2022-11-28T03:43:59.533Z,13.79
2022-11-28T03:44:26.925Z,13.88
2022-11-28T03:44:56.067Z,13.92
2022-11-28T03:45:22.201Z,13.92
2022-11-28T03:45:47.269Z,13.95
2022-11-28T03:46:13.614Z,13.90
2022-11-28T03:46:39.652Z,13.83
2022-11-28T03:47:04.808Z,13.83
2022-11-28T03:47:30.923Z,13.80
2022-11-28T03:47:57.822Z,13.80
2022-11-28T03:48:24.942Z,13.79
2022-11-28T03:48:49.679Z,13.83
2022-11-28T03:49:15.168Z,13.88
2022-11-28T03:49:40.854Z,13.84
2022-11-28T03:50:07.611Z,13.82
2022-11-28T03:50:34.335Z,13.78
2022-11-28T03:51:01.685Z,13.75
2022-11-28T03:51:29.176Z,13.81
2022-11-28T03:51:56.526Z,13.71
2022-11-28T03:52:25.202Z,13.74
2022-11-28T03:52:51.411Z,13.74
2022-11-28T03:53:20.446Z,13.77
2022-11-28T03:53:50.706Z,13.79
2022-11-28T03:54:17.376Z,13.64
2022-11-28T03:54:47.784Z,13.60
2022-11-28T03:55:14.182Z,13.67
2022-11-28T03:55:43.679Z,13.70
2022-11-28T03:56:11.288Z,13.72
2022-11-28T03:56:41.331Z,13.76
2022-11-28T03:57:09.157Z,13.77
2022-11-28T03:57:34.562Z,13.77
2022-11-28T03:58:05.862Z,13.79
2022-11-28T03:58:33.804Z,13.83
2022-11-28T03:59:00.204Z,13.87
2022-11-28T03:59:26.606Z,13.84
2022-11-28T03:59:52.143Z,13.77
2022-11-28T04:00:14.917Z,13.83
2022-11-28T04:00:44.433Z,13.82
2022-11-28T04:01:11.699Z,13.76
2022-11-28T04:01:43.738Z,13.65
2022-11-28T04:02:15.142Z,13.70
2022-11-28T04:02:40.991Z,13.68
2022-11-28T04:03:17.957Z,13.65
2022-11-28T04:03:46.758Z,13.58
2022-11-28T04:04:17.125Z,13.51
2022-11-28T04:04:45.367Z,13.38
2022-11-28T04:05:18.257Z,13.33
2022-11-28T04:05:46.927Z,13.31
2022-11-28T04:06:18.123Z,13.31
2022-11-28T04:06:53.945Z,13.34
2022-11-28T04:07:23.503Z,13.26
2022-11-28T04:07:48.777Z,13.30
2022-11-28T04:08:17.449Z,13.32
2022-11-28T04:08:44.392Z,13.36
2022-11-28T04:09:14.549Z,13.39
2022-11-28T04:09:43.854Z,13.44
2022-11-28T04:10:15.226Z,13.49
2022-11-28T04:10:42.199Z,13.44
2022-11-28T04:11:09.491Z,13.53
2022-11-28T04:11:37.315Z,13.54
2022-11-28T04:12:07.389Z,13.59
2022-11-28T04:12:38.550Z,13.60
2022-11-28T04:13:05.585Z,13.56
2022-11-28T04:13:32.006Z,13.61
2022-11-28T04:13:58.122Z,13.63
2022-11-28T04:14:25.181Z,13.63
2022-11-28T04:14:51.902Z,13.67
2022-11-28T04:15:23.828Z,13.66
2022-11-28T04:15:54.472Z,13.68
2022-11-28T04:16:22.748Z,13.57
2022-11-28T04:16:53.972Z,13.55
2022-11-28T04:17:19.542Z,13.60
2022-11-28T04:17:51.739Z,13.65
2022-11-28T04:18:21.273Z,13.67
2022-11-28T04:18:52.577Z,13.56
2022-11-28T04:19:19.765Z,13.50
2022-11-28T04:19:44.703Z,13.56
2022-11-28T04:20:13.542Z,13.54
2022-11-28T04:20:41.862Z,13.54
2022-11-28T04:21:11.737Z,13.48
2022-11-28T04:21:39.854Z,13.53
2022-11-28T04:22:07.404Z,13.55
2022-11-28T04:22:32.497Z,13.58
2022-11-28T04:22:59.745Z,13.58
2022-11-28T04:23:22.456Z,13.45
2022-11-28T04:23:47.061Z,13.27
2022-11-28T04:24:15.377Z,13.39
2022-11-28T04:24:41.520Z,13.31
2022-11-28T04:25:08.263Z,13.34
2022-11-28T04:25:34.180Z,13.38
2022-11-28T04:26:02.520Z,13.35
2022-11-28T04:26:29.026Z,13.36
2022-11-28T04:26:57.373Z,13.37
2022-11-28T04:27:23.358Z,13.39
2022-11-28T04:27:50.779Z,13.41
2022-11-28T04:28:16.163Z,13.40
2022-11-28T04:28:39.977Z,13.39
2022-11-28T04:29:06.732Z,13.40
2022-11-28T04:29:34.723Z,13.48
2022-11-28T04:30:00.918Z,13.50
2022-11-28T04:30:22.686Z,13.53
2022-11-28T04:30:48.627Z,13.45
2022-11-28T04:31:10.562Z,13.29
2022-11-28T04:31:33.561Z,13.43
2022-11-28T04:31:58.777Z,13.46
2022-11-28T04:32:23.548Z,13.49
2022-11-28T04:32:50.411Z,13.35
2022-11-28T04:33:14.386Z,13.36
2022-11-28T04:33:42.215Z,13.42
2022-11-28T04:34:07.480Z,13.35
2022-11-28T04:34:30.606Z,13.37
2022-11-28T04:34:56.387Z,13.41
2022-11-28T04:35:27.050Z,13.30
2022-11-28T04:35:52.684Z,13.39
2022-11-28T04:36:18.094Z,13.42
2022-11-28T04:36:44.211Z,13.45
2022-11-28T04:37:09.914Z,13.49
2022-11-28T04:37:36.102Z,13.50
2022-11-28T04:37:59.703Z,13.50
2022-11-28T04:38:24.331Z,13.50
2022-11-28T04:38:56.037Z,13.46
2022-11-28T04:39:21.207Z,13.45
2022-11-28T04:39:47.187Z,13.41
2022-11-28T04:40:12.821Z,13.42
2022-11-28T04:40:40.921Z,13.47
2022-11-28T04:41:06.762Z,13.38
2022-11-28T04:41:35.904Z,13.15
2022-11-28T04:42:06.310Z,13.18
2022-11-28T04:42:35.167Z,13.19
2022-11-28T04:43:02.252Z,13.17
2022-11-28T04:43:28.032Z,13.09
2022-11-28T04:43:54.766Z,13.05
2022-11-28T04:44:24.290Z,12.88
2022-11-28T04:44:51.317Z,13.07
2022-11-28T04:45:16.827Z,13.08
2022-11-28T04:45:46.096Z,13.06
2022-11-28T04:46:13.082Z,12.94
2022-11-28T04:46:41.218Z,12.99
2022-11-28T04:47:04.449Z,13.05
2022-11-28T04:47:27.383Z,13.08
2022-11-28T04:47:49.181Z,13.10
2022-11-28T04:48:11.139Z,13.12
2022-11-28T04:48:34.543Z,13.12
2022-11-28T04:48:58.809Z,13.16
2022-11-28T04:49:20.893Z,13.18
2022-11-28T04:49:42.625Z,13.22
2022-11-28T04:50:05.470Z,13.20
2022-11-28T04:50:31.614Z,13.24
2022-11-28T04:51:03.789Z,13.23
2022-11-28T04:51:30.647Z,13.29
2022-11-28T04:51:59.294Z,13.30
2022-11-28T04:52:30.348Z,13.16
2022-11-28T04:52:56.189Z,13.21
2022-11-28T04:53:24.822Z,13.11
2022-11-28T04:53:54.041Z,13.01
2022-11-28T04:54:22.793Z,12.91
2022-11-28T04:54:55.279Z,12.94
2022-11-28T04:55:27.012Z,12.97
2022-11-28T04:55:55.046Z,12.99
2022-11-28T04:56:22.405Z,12.66
2022-11-28T04:56:50.413Z,12.83
2022-11-28T04:57:16.468Z,12.85
2022-11-28T04:57:40.861Z,12.84
2022-11-28T04:58:08.998Z,12.90
2022-11-28T04:58:35.879Z,13.01
2022-11-28T04:58:58.705Z,13.01
2022-11-28T04:59:22.354Z,13.09
2022-11-28T04:59:46.117Z,13.13
2022-11-28T05:00:12.912Z,13.19
2022-11-28T05:00:37.852Z,13.19
2022-11-28T05:01:01.934Z,13.21
2022-11-28T05:01:27.759Z,13.20
2022-11-28T05:01:50.229Z,13.24
2022-11-28T05:02:15.671Z,13.30
2022-11-28T05:02:39.132Z,13.31
2022-11-28T05:03:01.302Z,13.27
2022-11-28T05:03:27.903Z,13.29
2022-11-28T05:03:50.719Z,13.26
2022-11-28T05:04:15.115Z,13.29
2022-11-28T05:04:37.263Z,13.31
2022-11-28T05:04:59.638Z,13.35
2022-11-28T05:05:25.608Z,13.38
2022-11-28T05:05:49.163Z,13.37
2022-11-28T05:06:10.772Z,13.31
2022-11-28T05:06:35.727Z,13.18
2022-11-28T05:07:02.313Z,13.16
2022-11-28T05:07:24.265Z,13.16
2022-11-28T05:07:46.039Z,13.21
2022-11-28T05:08:08.676Z,13.12
2022-11-28T05:08:30.604Z,13.16
2022-11-28T05:08:52.399Z,13.15
2022-11-28T05:09:15.130Z,13.17
2022-11-28T05:09:36.933Z,12.98
2022-11-28T05:09:58.793Z,13.04
2022-11-28T05:10:21.032Z,13.06
2022-11-28T05:10:43.845Z,13.14
2022-11-28T05:11:05.613Z,13.17
2022-11-28T05:11:27.822Z,13.21
2022-11-28T05:11:49.473Z,13.22
2022-11-28T05:12:12.126Z,13.20
2022-11-28T05:12:34.273Z,13.28
2022-11-28T05:12:55.885Z,13.28
2022-11-28T05:13:17.824Z,13.25
2022-11-28T05:13:39.393Z,13.07
2022-11-28T05:14:01.957Z,13.02
2022-11-28T05:14:23.825Z,12.99
2022-11-28T05:14:45.435Z,13.07
2022-11-28T05:15:08.082Z,13.10
2022-11-28T05:15:30.731Z,13.15
2022-11-28T05:15:52.831Z,13.15
2022-11-28T05:16:15.277Z,13.17
2022-11-28T05:16:36.945Z,13.11
2022-11-28T05:16:59.667Z,13.09
2022-11-28T05:17:21.313Z,13.08
2022-11-28T05:17:42.896Z,13.07
2022-11-28T05:18:04.747Z,13.10
2022-11-28T05:18:27.287Z,13.12
2022-11-28T05:18:49.085Z,13.15
2022-11-28T05:19:11.123Z,13.14
2022-11-28T05:19:34.074Z,13.28
2022-11-28T05:19:56.773Z,13.22
2022-11-28T05:20:18.546Z,13.02
2022-11-28T05:20:40.276Z,13.00
2022-11-28T05:21:01.957Z,12.98
2022-11-28T05:21:23.814Z,13.06
2022-11-28T05:21:46.418Z,13.07
2022-11-28T05:22:08.038Z,13.15
2022-11-28T05:22:29.597Z,13.12
2022-11-28T05:22:51.166Z,13.14
2022-11-28T05:23:13.739Z,13.12
2022-11-28T05:23:36.015Z,13.20
2022-11-28T05:23:57.629Z,13.21
2022-11-28T05:24:19.271Z,13.11
2022-11-28T05:24:41.865Z,13.15
2022-11-28T05:25:03.781Z,13.14
2022-11-28T05:25:25.482Z,13.11
2022-11-28T05:25:47.110Z,13.19
2022-11-28T05:26:10.906Z,13.24
2022-11-28T05:26:32.764Z,13.29
2022-11-28T05:26:54.368Z,13.30
2022-11-28T05:27:16.039Z,13.33
2022-11-28T05:27:38.716Z,13.34
2022-11-28T05:28:00.358Z,13.38
2022-11-28T05:28:21.970Z,13.39
2022-11-28T05:28:44.839Z,13.39
2022-11-28T05:29:08.149Z,13.40
2022-11-28T05:29:30.032Z,13.45
2022-11-28T05:29:53.155Z,13.49
2022-11-28T05:30:15.363Z,13.48
2022-11-28T05:30:37.962Z,13.52
2022-11-28T05:31:00.518Z,13.52
2022-11-28T05:31:22.386Z,13.33
2022-11-28T05:31:44.217Z,13.31
2022-11-28T05:32:06.953Z,13.36
2022-11-28T05:32:29.460Z,13.24
2022-11-28T05:32:51.136Z,12.97
2022-11-28T05:33:13.711Z,12.84
2022-11-28T05:33:35.314Z,12.95